New Harbor, ME (Heathkit)

43° 52' 34"N, 69° 29' 40"W, Elevation 65 ft.
Eastern Time

Hourly observations for the last 72 hours

Date Time Temperature (°F) Humi-
dity

(%)
Wind
(mph)
Pressure Rain (in)
Air Dew 6 Hour 1 Hr 3 Hr 6 Hr Day
Alt
(in)
Sea
Level

(mb)
Max Min
22 08:00 73 59 73 60 62 ESE 5 G 12 29.75 1007.5 0.00
22 07:00 68 54 61 SE 1 G 6 29.75 1007.5 0.00
22 06:00 65 51 61 S 1 G 1 29.73 1006.8 0.00
22 05:00 65 51 60 S 0 G 1 29.71 1006.1 0.00
22 04:00 65 51 60 S 0 G 1 29.69 1005.5 0.00
22 03:00 67 53 60 S 1 G 2 29.68 1005.1 0.00
22 02:00 69 55 78 64 60 E 0 G 1 29.67 1004.8 0.00
22 01:00 70 55 60 ESE 1 G 4 29.66 1004.4 0.00
22 00:00 71 56 60 S 1 G 2 29.65 1004.1 0.01
21 23:00 73 58 60 SE 0 G 1 29.65 1004.1 0.01
21 22:00 75 61 61 ESE 0 G 1 29.64 1003.8 0.01
21 21:00 75 61 62 SSE 0 G 1 29.62 1003.1 0.01
21 20:00 78 64 89 75 63 SE 0 G 2 29.61 1002.7 0.01
21 19:00 83 68 60 SSE 2 G 10 29.58 1001.7 0.01
21 18:00 85 72 65 SE 2 G 10 29.56 1001.0 0.01
21 17:00 87 71 59 SSW 6 G 18 29.54 1000.4 0.01
21 16:00 86 71 60 S 4 G 13 29.53 1000.0 0.01
21 15:00 86 74 67 SE 1 G 7 29.50 999.0 0.01
21 14:00 83 71 91 74 67 S 1 G 6 29.49 998.7 0.01 0.01 0.01 0.01
21 13:00 85 73 67 SSW 2 G 9 29.48 998.3 0.00
21 12:00 89 76 65 S 2 G 6 29.49 998.7 0.00
21 11:00 87 75 67 SSW 1 G 7 29.49 998.7 0.00
21 10:00 88 75 66 S 3 G 6 29.50 999.0 0.00
21 09:00 85 72 65 SW 4 G 7 29.51 999.4 0.00
21 08:00 78 64 78 66 63 ESE 1 G 3 29.51 999.4 0.00
21 07:00 74 61 63 SW 2 G 6 29.52 999.7 0.00
21 06:00 71 57 62 SSW 1 G 3 29.52 999.7 0.00
21 05:00 70 56 62 S 1 G 2 29.51 999.4 0.00
21 04:00 70 56 62 SW 1 G 3 29.52 999.7 0.00
21 03:00 71 57 62 S 1 G 2 29.51 999.4 0.00
21 02:00 72 58 76 66 62 SE 1 G 3 29.51 999.4 0.00
21 01:00 72 58 61 WSW 3 G 5 29.53 1000.0 0.00
21 00:00 73 59 62 SW 3 G 10 29.55 1000.7 0.00
20 23:00 73 59 61 WSW 3 G 10 29.57 1001.4 0.00
20 22:00 73 59 61 SW 4 G 12 29.59 1002.1 0.00
20 21:00 75 61 62 SSW 2 G 10 29.61 1002.7 0.00
20 20:00 76 62 90 72 62 WSW 4 G 7 29.62 1003.1 0.00
20 19:00 77 63 63 SW 4 G 13 29.60 1002.4 0.00
20 18:00 82 69 64 S 4 G 10 29.58 1001.7 0.00
20 17:00 83 70 65 S 3 G 7 29.59 1002.1 0.00
20 16:00 87 73 64 S 3 G 14 29.62 1003.1 0.00
20 15:00 89 74 61 S 3 G 12 29.61 1002.7 0.00
20 14:00 89 75 89 68 63 SSW 4 G 12 29.63 1003.4 0.00
20 13:00 87 74 66 S 5 G 10 29.64 1003.8 0.00
20 12:00 87 74 66 S 2 G 11 29.65 1004.1 0.00
20 11:00 85 72 65 SSE 2 G 7 29.66 1004.4 0.00
20 10:00 84 71 64 SE 1 G 7 29.65 1004.1 0.00
20 09:00 81 67 63 S 2 G 5 29.64 1003.8 0.00
20 08:00 72 58 72 59 62 SW 2 G 4 29.65 1004.1 0.00
20 07:00 68 54 61 SSW 1 G 3 29.63 1003.4 0.00
20 06:00 65 51 61 S 1 G 2 29.62 1003.1 0.00
20 05:00 63 49 61 S 1 G 1 29.60 1002.4 0.00
20 04:00 64 50 61 SSE 1 G 2 29.60 1002.4 0.00
20 03:00 65 51 61 E 0 G 1 29.59 1002.1 0.00
20 02:00 66 52 68 60 61 E 1 G 2 29.59 1002.1 0.00
20 01:00 68 54 61 ESE 0 G 1 29.58 1001.7 0.00
20 00:00 68 54 61 SW 2 G 6 29.58 1001.7 0.00
19 23:00 68 54 61 WSW 1 G 3 29.61 1002.7 0.00
19 22:00 68 54 60 SW 3 G 10 29.61 1002.7 0.00
19 21:00 68 54 60 SW 3 G 7 29.62 1003.1 0.00
19 20:00 68 54 75 63 60 WSW 4 G 10 29.62 1003.1 0.00
19 19:00 69 55 60 S 2 G 7 29.63 1003.4 0.00
19 18:00 71 56 60 S 4 G 12 29.64 1003.8 0.00
19 17:00 73 59 61 SSE 3 G 10 29.66 1004.4 0.00
19 16:00 73 59 62 SSW 5 G 14 29.69 1005.5 0.00
19 15:00 74 60 62 S 5 G 14 29.68 1005.1 0.00
19 14:00 72 58 77 57 62 S 6 G 15 29.71 1006.1 0.00
19 13:00 75 61 62 S 4 G 8 29.72 1006.5 0.00
19 12:00 73 59 61 ESE 2 G 6 29.74 1007.1 0.00
19 11:00 71 57 62 SE 2 G 6 29.75 1007.5 0.00
19 10:00 70 56 62 ESE 2 G 5 29.77 1008.2 0.00
19 09:00 68 54 61 ESE 1 G 4 29.78 1008.5 0.00

Data generated by WxSolution Version 1.9.1.5, Build 2018.05.20.